Time;durP1;ratioP1;P1;durP2;ratioP2;P2;SDS_P1;SDS_P2;PMS_P1;PMS_P2;Temp;Humidity;BMP_temperature;BMP_pressure;BME280_temperature;BME280_humidity;BME280_pressure;Samples;Min_cycle;Max_cycle;Signal;HPM_P1;HPM_P2
2022/03/01 00:01:27;;;;;;;21.40;10.43;;;;;;;;;;5054427;28;20044;-67
2022/03/01 00:03:53;;;;;;;16.98;10.00;;;;;;;;;;5053750;28;20106;-67
2022/03/01 00:06:19;;;;;;;19.58;10.30;;;;;;;;;;5050138;28;20461;-69
2022/03/01 00:08:45;;;;;;;18.23;10.48;;;;;;;;;;5067199;28;20099;-70
2022/03/01 00:11:11;;;;;;;16.60;9.80;;;;;;;;;;5061649;28;20569;-71
2022/03/01 00:13:37;;;;;;;17.25;10.70;;;;;;;;;;5070963;22;20121;-72
2022/03/01 00:16:03;;;;;;;19.83;10.75;;;3.80;99.90;;;;;;5049140;28;20041;-72
2022/03/01 00:18:29;;;;;;;17.83;11.05;;;3.80;99.90;;;;;;5047352;28;20025;-72
2022/03/01 00:20:55;;;;;;;14.90;9.95;;;;;;;;;;5048562;28;20055;-71
2022/03/01 00:23:21;;;;;;;18.48;10.38;;;;;;;;;;5027854;28;20511;-71
2022/03/01 00:25:46;;;;;;;17.25;10.70;;;3.60;99.90;;;;;;5024362;28;20033;-71
2022/03/01 00:28:12;;;;;;;21.98;10.57;;;;;;;;;;5012695;28;20042;-72
2022/03/01 00:30:38;;;;;;;18.80;10.75;;;;;;;;;;5026819;28;20029;-71
2022/03/01 00:33:04;;;;;;;20.15;10.75;;;;;;;;;;5028561;28;20033;-71
2022/03/01 00:35:30;;;;;;;18.90;10.50;;;;;;;;;;5012945;28;20037;-70
2022/03/01 00:37:57;;;;;;;17.40;10.98;;;;;;;;;;5010851;28;20069;-71
2022/03/01 00:40:23;;;;;;;17.27;10.57;;;3.60;99.90;;;;;;5022847;28;20100;-71
2022/03/01 00:42:49;;;;;;;19.00;10.98;;;;;;;;;;5004378;28;20045;-70
2022/03/01 00:45:14;;;;;;;17.38;10.52;;;3.60;99.90;;;;;;5029393;28;20068;-71
2022/03/01 00:47:40;;;;;;;18.65;11.13;;;;;;;;;;5032110;28;20041;-70
2022/03/01 00:50:06;;;;;;;20.95;10.55;;;;;;;;;;5030761;28;20380;-70
2022/03/01 00:52:33;;;;;;;18.90;10.45;;;;;;;;;;5032155;28;20233;-70
2022/03/01 00:54:58;;;;;;;16.35;10.25;;;;;;;;;;5031616;28;20048;-69
2022/03/01 00:57:24;;;;;;;17.45;10.70;;;;;;;;;;5031258;28;20033;-70
2022/03/01 00:59:50;;;;;;;20.15;11.43;;;;;;;;;;5031892;28;20167;-70
2022/03/01 01:02:16;;;;;;;18.73;10.32;;;;;;;;;;5031730;28;20041;-70
2022/03/01 01:04:42;;;;;;;18.38;10.25;;;;;;;;;;5031963;28;20171;-70
2022/03/01 01:07:08;;;;;;;18.95;11.15;;;;;;;;;;5031706;28;20037;-70
2022/03/01 01:09:34;;;;;;;17.38;10.85;;;;;;;;;;5031707;28;20033;-71
2022/03/01 01:12:00;;;;;;;19.88;12.35;;;3.40;99.90;;;;;;5031973;28;20049;-70
2022/03/01 01:14:26;;;;;;;18.45;11.43;;;;;;;;;;5030295;28;20045;-71
2022/03/01 01:16:52;;;;;;;18.35;11.10;;;;;;;;;;5027643;28;20037;-70
2022/03/01 01:19:18;;;;;;;19.85;11.27;;;;;;;;;;5022986;28;20068;-69
2022/03/01 01:24:28;;;;;;;20.95;12.05;;;;;;;;;;5011955;28;20099;-69
2022/03/01 01:26:54;;;;;;;18.05;11.50;;;;;;;;;;5030155;28;20393;-70
2022/03/01 01:29:20;;;;;;;22.55;11.60;;;;;;;;;;5031903;28;20049;-70
2022/03/01 01:31:46;;;;;;;21.08;11.15;;;3.20;99.90;;;;;;5014852;28;20517;-70
2022/03/01 01:34:12;;;;;;;20.80;11.75;;;;;;;;;;5030696;28;20053;-70
2022/03/01 01:36:37;;;;;;;17.70;10.68;;;3.30;99.90;;;;;;5015343;28;20080;-70
2022/03/01 01:39:03;;;;;;;19.15;10.77;;;;;;;;;;5030707;28;20072;-70
2022/03/01 01:41:30;;;;;;;17.27;10.85;;;;;;;;;;5013877;28;20053;-70
2022/03/01 01:43:56;;;;;;;16.05;10.93;;;3.20;99.90;;;;;;5031156;28;20081;-70
2022/03/01 01:46:22;;;;;;;21.83;11.80;;;3.10;99.90;;;;;;5029778;28;20120;-69
2022/03/01 01:48:48;;;;;;;18.42;11.23;;;;;;;;;;5015092;28;20092;-71
2022/03/01 01:51:14;;;;;;;20.13;11.57;;;;;;;;;;5012325;28;20029;-70
2022/03/01 01:53:40;;;;;;;21.60;12.50;;;;;;;;;;5030291;28;20077;-71
2022/03/01 01:56:06;;;;;;;20.77;11.80;;;;;;;;;;5031381;28;20120;-70
2022/03/01 01:58:32;;;;;;;19.42;11.68;;;;;;;;;;5029931;28;20141;-70
2022/03/01 02:00:57;;;;;;;17.02;10.35;;;3.10;99.90;;;;;;5031156;28;20102;-70
2022/03/01 02:03:23;;;;;;;19.10;12.32;;;3.20;99.90;;;;;;5029579;28;20034;-70
2022/03/01 02:05:49;;;;;;;18.65;11.85;;;;;;;;;;5018204;28;20034;-70
2022/03/01 02:08:14;;;;;;;19.35;10.57;;;;;;;;;;5015770;28;20053;-71
2022/03/01 02:10:40;;;;;;;16.48;10.40;;;;;;;;;;5028399;28;20513;-70
2022/03/01 02:13:06;;;;;;;18.40;11.02;;;;;;;;;;5030459;28;20049;-70
2022/03/01 02:15:35;;;;;;;21.23;11.95;;;;;;;;;;5027677;28;20134;-70
2022/03/01 02:18:01;;;;;;;18.30;11.73;;;;;;;;;;5026533;28;20487;-71
2022/03/01 02:20:29;;;;;;;19.55;11.38;;;;;;;;;;5029317;28;20067;-70
2022/03/01 02:22:56;;;;;;;21.73;11.68;;;;;;;;;;5012775;28;20042;-70
2022/03/01 02:25:22;;;;;;;17.10;10.57;;;;;;;;;;5012556;28;20111;-71
2022/03/01 02:27:48;;;;;;;20.65;12.07;;;;;;;;;;5029301;28;20037;-70
2022/03/01 02:30:14;;;;;;;16.08;10.20;;;;;;;;;;5029708;28;20033;-70
2022/03/01 02:32:40;;;;;;;16.92;10.60;;;;;;;;;;5028652;28;20134;-70
2022/03/01 02:35:08;;;;;;;18.63;11.55;;;;;;;;;;5030085;28;20041;-71
2022/03/01 02:37:34;;;;;;;22.52;11.52;;;;;;;;;;5012074;28;20132;-69
2022/03/01 02:40:00;;;;;;;19.95;11.57;;;;;;;;;;5029343;28;20049;-70
2022/03/01 02:42:27;;;;;;;16.88;10.30;;;;;;;;;;5028895;28;20048;-70
2022/03/01 02:44:54;;;;;;;20.38;11.93;;;;;;;;;;5028987;28;20037;-70
2022/03/01 02:47:20;;;;;;;18.75;10.73;;;;;;;;;;5013124;28;20043;-70
2022/03/01 02:49:46;;;;;;;15.88;10.82;;;;;;;;;;5027643;28;20041;-71
2022/03/01 02:52:12;;;;;;;20.30;12.20;;;;;;;;;;5029197;28;20041;-70
2022/03/01 02:54:38;;;;;;;17.70;11.30;;;;;;;;;;5028908;28;20083;-71
2022/03/01 02:57:03;;;;;;;18.42;11.18;;;3.50;99.90;;;;;;5012165;28;20033;-70
2022/03/01 02:59:30;;;;;;;17.85;10.93;;;;;;;;;;5028987;28;20041;-70
2022/03/01 03:01:57;;;;;;;20.98;11.63;;;3.60;99.90;;;;;;5027391;28;20037;-70
2022/03/01 03:04:24;;;;;;;21.52;12.13;;;;;;;;;;5029153;28;20049;-70
2022/03/01 03:06:50;;;;;;;22.85;13.02;;;;;;;;;;5012027;28;20045;-71
2022/03/01 03:09:16;;;;;;;20.42;10.10;;;;;;;;;;5028488;28;20048;-71
2022/03/01 03:11:42;;;;;;;20.98;11.27;;;;;;;;;;5012434;28;20065;-70
2022/03/01 03:14:08;;;;;;;19.75;11.15;;;;;;;;;;5027031;28;20067;-71
2022/03/01 03:16:34;;;;;;;20.63;10.88;;;;;;;;;;4995527;28;20042;-71
2022/03/01 03:19:00;;;;;;;18.15;10.82;;;;;;;;;;5019779;28;20041;-70
2022/03/01 03:21:26;;;;;;;18.80;11.45;;;;;;;;;;5027924;28;20079;-71
2022/03/01 03:23:52;;;;;;;18.13;10.60;;;;;;;;;;5029140;28;20568;-71
2022/03/01 03:26:18;;;;;;;19.58;10.90;;;;;;;;;;5028024;28;20284;-70
2022/03/01 03:28:44;;;;;;;18.35;11.25;;;3.50;99.90;;;;;;5028511;28;20495;-69
2022/03/01 03:31:10;;;;;;;16.20;11.30;;;;;;;;;;5010902;28;20087;-69
2022/03/01 03:33:36;;;;;;;21.83;12.65;;;;;;;;;;5013401;28;20044;-69
2022/03/01 03:36:03;;;;;;;17.67;10.43;;;;;;;;;;5029632;28;20030;-69
2022/03/01 03:38:29;;;;;;;15.88;10.35;;;;;;;;;;5028573;28;20045;-72
2022/03/01 03:40:54;;;;;;;22.25;11.68;;;3.40;99.90;;;;;;5029410;28;20049;-70
2022/03/01 03:43:20;;;;;;;21.05;10.82;;;3.40;99.90;;;;;;5028841;28;20063;-70
2022/03/01 03:45:47;;;;;;;21.10;11.00;;;;;;;;;;5028655;28;20026;-69
2022/03/01 03:48:13;;;;;;;19.92;11.70;;;3.40;99.90;;;;;;5018955;28;20130;-70
2022/03/01 03:50:38;;;;;;;21.48;12.07;;;3.40;99.90;;;;;;5025822;28;20125;-69
2022/03/01 03:53:04;;;;;;;25.20;11.70;;;;;;;;;;5028584;28;20396;-71
2022/03/01 03:55:30;;;;;;;20.42;11.63;;;;;;;;;;5013096;28;20675;-69
2022/03/01 03:57:56;;;;;;;19.45;12.10;;;;;;;;;;5029016;28;20045;-69
2022/03/01 04:00:22;;;;;;;20.85;11.43;;;;;;;;;;5012575;28;20045;-69
2022/03/01 04:02:51;;;;;;;19.45;11.38;;;;;;;;;;5022123;28;20038;-69
2022/03/01 04:05:17;;;;;;;19.30;11.48;;;;;;;;;;5028135;28;20095;-70
2022/03/01 04:07:44;;;;;;;18.85;11.73;;;3.40;99.90;;;;;;5013161;28;20562;-70
2022/03/01 04:10:10;;;;;;;18.55;10.77;;;3.40;99.90;;;;;;5027849;28;20041;-70
2022/03/01 04:12:37;;;;;;;17.98;10.48;;;3.50;99.90;;;;;;5012778;28;20037;-69
2022/03/01 04:15:04;;;;;;;17.83;10.90;;;;;;;;;;5026232;28;20065;-69
2022/03/01 04:17:30;;;;;;;24.85;12.20;;;;;;;;;;5032693;28;20060;-70
2022/03/01 04:19:56;;;;;;;16.02;10.68;;;;;;;;;;5016454;28;20046;-72
2022/03/01 04:22:22;;;;;;;21.95;11.85;;;;;;;;;;5031663;28;20120;-73
2022/03/01 04:24:48;;;;;;;22.48;11.95;;;3.30;99.90;;;;;;5032871;28;20033;-72
2022/03/01 04:27:14;;;;;;;24.02;11.50;;;;;;;;;;5032011;28;20033;-70
2022/03/01 04:29:40;;;;;;;20.63;12.38;;;;;;;;;;5032871;28;20122;-69
2022/03/01 04:32:06;;;;;;;19.60;11.57;;;;;;;;;;5016540;28;20116;-69
2022/03/01 04:34:32;;;;;;;17.17;10.57;;;;;;;;;;5031967;28;20391;-69
2022/03/01 04:36:58;;;;;;;21.88;12.27;;;;;;;;;;5033091;28;20137;-69
2022/03/01 04:39:24;;;;;;;18.67;11.63;;;;;;;;;;5028478;28;20076;-69
2022/03/01 04:41:50;;;;;;;20.83;11.55;;;;;;;;;;5031971;28;20076;-69
2022/03/01 04:44:16;;;;;;;20.23;11.77;;;;;;;;;;5032773;28;20088;-70
2022/03/01 04:46:43;;;;;;;19.92;11.77;;;;;;;;;;5031022;28;20034;-69
2022/03/01 04:49:09;;;;;;;20.67;12.35;;;;;;;;;;5016208;28;20450;-70
2022/03/01 04:51:35;;;;;;;19.95;11.88;;;;;;;;;;5032677;28;20034;-70
2022/03/01 04:54:00;;;;;;;18.67;11.70;;;3.40;99.90;;;;;;5030861;28;20076;-70
2022/03/01 04:56:26;;;;;;;21.20;11.90;;;3.50;99.90;;;;;;5032384;28;20418;-70
2022/03/01 04:58:52;;;;;;;17.23;11.38;;;;;;;;;;5014767;28;20483;-69
2022/03/01 05:01:18;;;;;;;17.90;11.40;;;3.40;99.90;;;;;;5031347;28;20037;-69
2022/03/01 05:03:44;;;;;;;19.80;11.80;;;;;;;;;;5032055;28;20064;-70
2022/03/01 05:06:10;;;;;;;19.70;12.05;;;;;;;;;;5019685;28;20042;-70
2022/03/01 05:08:36;;;;;;;18.27;11.38;;;;;;;;;;5015443;28;20040;-70
2022/03/01 05:11:02;;;;;;;19.20;11.85;;;;;;;;;;5014558;28;20115;-69
2022/03/01 05:13:28;;;;;;;18.42;11.10;;;;;;;;;;5014572;28;20534;-70
2022/03/01 05:15:54;;;;;;;22.52;12.55;;;;;;;;;;5019339;28;20054;-70
2022/03/01 05:18:21;;;;;;;19.98;10.93;;;;;;;;;;5025065;28;20045;-70
2022/03/01 05:20:47;;;;;;;20.63;11.98;;;3.60;99.90;;;;;;5030378;28;20038;-70
2022/03/01 05:23:13;;;;;;;19.35;12.07;;;;;;;;;;5031525;28;20319;-70
2022/03/01 05:25:39;;;;;;;23.83;12.20;;;;;;;;;;5030288;28;20060;-70
2022/03/01 05:28:05;;;;;;;19.02;11.88;;;;;;;;;;5031406;28;20041;-71
2022/03/01 05:30:31;;;;;;;20.90;12.20;;;;;;;;;;5031248;28;20439;-71
2022/03/01 05:32:57;;;;;;;24.27;11.88;;;;;;;;;;5014979;28;20041;-69
2022/03/01 05:35:25;;;;;;;20.30;12.35;;;3.60;99.90;;;;;;5030883;28;20079;-71
2022/03/01 05:37:55;;;;;;;20.10;12.27;;;;;;;;;;5030955;28;20594;-70
2022/03/01 05:40:23;;;;;;;20.55;12.00;;;3.50;99.90;;;;;;5031322;28;20059;-70
2022/03/01 05:42:49;;;;;;;19.15;11.32;;;3.40;99.90;;;;;;5030398;28;20076;-70
2022/03/01 05:45:15;;;;;;;21.73;12.35;;;3.40;99.90;;;;;;5014914;28;20033;-70
2022/03/01 05:47:43;;;;;;;20.83;11.48;;;3.50;99.90;;;;;;5014055;28;20040;-71
2022/03/01 05:50:09;;;;;;;26.83;12.65;;;3.40;99.90;;;;;;5030314;28;20037;-70
2022/03/01 05:52:36;;;;;;;19.27;12.30;;;3.50;99.90;;;;;;5030562;28;20052;-70
2022/03/01 05:55:03;;;;;;;20.80;12.43;;;;;;;;;;5013297;28;20045;-70
2022/03/01 05:57:29;;;;;;;17.23;10.57;;;;;;;;;;5031208;28;20056;-71
2022/03/01 05:59:56;;;;;;;19.42;11.95;;;3.60;99.90;;;;;;5029590;28;20517;-70
2022/03/01 06:02:21;;;;;;;22.23;12.32;;;3.50;99.90;;;;;;5030812;28;20446;-70
2022/03/01 06:04:47;;;;;;;19.30;11.02;;;;;;;;;;5028979;28;20050;-70
2022/03/01 06:07:13;;;;;;;21.30;12.13;;;;;;;;;;5030318;28;20137;-71
2022/03/01 06:09:39;;;;;;;23.15;12.70;;;;;;;;;;5028723;28;20484;-69
2022/03/01 06:12:05;;;;;;;19.58;12.38;;;;;;;;;;5029630;28;20052;-70
2022/03/01 06:14:31;;;;;;;24.58;12.25;;;;;;;;;;5029311;28;20073;-70
2022/03/01 06:16:57;;;;;;;19.17;11.82;;;;;;;;;;5024276;28;20123;-72
2022/03/01 06:19:23;;;;;;;25.58;12.55;;;3.60;99.90;;;;;;5029981;28;20045;-71
2022/03/01 06:21:48;;;;;;;17.52;11.55;;;3.70;99.90;;;;;;5029812;28;20041;-71
2022/03/01 06:24:14;;;;;;;23.05;11.68;;;3.60;99.90;;;;;;5029270;28;20052;-71
2022/03/01 06:26:40;;;;;;;25.52;13.32;;;;;;;;;;5030624;28;20056;-71
2022/03/01 06:29:07;;;;;;;24.25;11.75;;;;;;;;;;5028864;28;20099;-73
2022/03/01 06:31:32;;;;;;;17.73;10.85;;;3.60;99.90;;;;;;5029887;28;20037;-71
2022/03/01 06:33:58;;;;;;;21.77;11.50;;;;;;;;;;5012792;28;20410;-71
2022/03/01 06:36:25;;;;;;;21.38;12.05;;;;;;;;;;5029081;28;20095;-71
2022/03/01 06:38:51;;;;;;;24.63;13.55;;;;;;;;;;5013202;28;20064;-71
2022/03/01 06:41:17;;;;;;;22.75;12.40;;;3.70;99.90;;;;;;5011796;28;20045;-71
2022/03/01 06:43:43;;;;;;;20.05;12.30;;;;;;;;;;5028358;28;20037;-71
2022/03/01 06:46:09;;;;;;;19.98;12.65;;;;;;;;;;5029113;28;20041;-71
2022/03/01 06:48:35;;;;;;;21.00;12.13;;;;;;;;;;5012342;28;20407;-71
2022/03/01 06:51:01;;;;;;;21.55;12.70;;;;;;;;;;5008377;28;20113;-72
2022/03/01 06:53:27;;;;;;;22.38;12.38;;;3.70;99.90;;;;;;5025845;28;20499;-72
2022/03/01 06:55:53;;;;;;;21.65;11.77;;;4.00;99.90;;;;;;5029207;28;20203;-73
2022/03/01 06:58:19;;;;;;;21.50;12.45;;;;;;;;;;5002072;28;20080;-71
2022/03/01 07:00:45;;;;;;;20.52;11.60;;;;;;;;;;5019855;28;20033;-71
2022/03/01 07:03:11;;;;;;;17.75;11.35;;;;;;;;;;5026763;28;20048;-72
2022/03/01 07:05:37;;;;;;;21.92;11.85;;;;;;;;;;5003854;28;20034;-72
2022/03/01 07:08:03;;;;;;;20.80;12.55;;;;;;;;;;5013677;28;20037;-72
2022/03/01 07:10:29;;;;;;;23.48;12.55;;;;;;;;;;5022045;28;20041;-71
2022/03/01 07:12:55;;;;;;;20.42;12.38;;;;;;;;;;5025240;28;20041;-73
2022/03/01 07:15:21;;;;;;;18.58;12.15;;;;;;;;;;5016410;28;20046;-73
2022/03/01 07:17:47;;;;;;;24.42;12.25;;;;;;;;;;5024009;28;20045;-72
2022/03/01 07:20:13;;;;;;;19.13;12.48;;;;;;;;;;5026678;28;20140;-72
2022/03/01 07:22:40;;;;;;;23.42;11.70;;;;;;;;;;5010939;28;20045;-72
2022/03/01 07:25:07;;;;;;;24.67;11.95;;;4.20;99.90;;;;;;4995746;28;20037;-72
2022/03/01 07:27:33;;;;;;;19.65;11.43;;;;;;;;;;4998791;28;20463;-72
2022/03/01 07:29:59;;;;;;;20.27;12.15;;;;;;;;;;5002982;28;20120;-71
2022/03/01 07:32:25;;;;;;;21.58;12.20;;;;;;;;;;4993501;28;20034;-71
2022/03/01 07:34:51;;;;;;;22.67;13.88;;;;;;;;;;5018348;28;20034;-71
2022/03/01 07:37:17;;;;;;;19.45;12.38;;;;;;;;;;5006071;28;20048;-72
2022/03/01 07:39:43;;;;;;;21.90;12.48;;;;;;;;;;5042910;22;20037;-69
2022/03/01 07:42:09;;;;;;;18.63;11.80;;;;;;;;;;5044988;28;20043;-67
2022/03/01 07:44:37;;;;;;;21.52;12.75;;;;;;;;;;5028138;28;20462;-69
2022/03/01 07:47:07;;;;;;;23.27;13.52;;;;;;;;;;5011088;28;20041;-71
2022/03/01 07:49:33;;;;;;;21.10;12.05;;;;;;;;;;5027473;28;20275;-69
2022/03/01 07:51:59;;;;;;;20.88;12.23;;;;;;;;;;5028949;28;20037;-69
2022/03/01 07:54:25;;;;;;;19.52;12.80;;;;;;;;;;5013228;28;20556;-69
2022/03/01 07:56:50;;;;;;;21.85;11.88;;;4.30;99.90;;;;;;5030237;28;20076;-69
2022/03/01 07:59:16;;;;;;;17.27;11.10;;;;;;;;;;5030087;28;20134;-69
2022/03/01 08:01:42;;;;;;;20.30;12.73;;;4.50;99.90;;;;;;5030170;28;20124;-69
2022/03/01 08:04:08;;;;;;;18.75;12.55;;;;;;;;;;5030179;28;20128;-69
2022/03/01 08:06:34;;;;;;;21.15;12.90;;;;;;;;;;5029988;28;20042;-70
2022/03/01 08:09:00;;;;;;;19.88;11.93;;;;;;;;;;5030158;28;20103;-70
2022/03/01 08:11:26;;;;;;;18.67;11.77;;;;;;;;;;5030181;28;20037;-69
2022/03/01 08:13:52;;;;;;;22.35;12.65;;;;;;;;;;5031519;28;20053;-69
2022/03/01 08:16:19;;;;;;;18.52;11.60;;;4.70;99.90;;;;;;5030025;28;20034;-69
2022/03/01 08:18:45;;;;;;;21.40;12.27;;;;;;;;;;5030134;28;20514;-69
2022/03/01 08:21:11;;;;;;;19.95;12.40;;;;;;;;;;5029482;28;20041;-69
2022/03/01 08:23:37;;;;;;;23.05;13.18;;;;;;;;;;5032463;28;20041;-69
2022/03/01 08:26:04;;;;;;;22.38;13.07;;;;;;;;;;5032032;28;20037;-70
2022/03/01 08:28:30;;;;;;;18.63;11.88;;;;;;;;;;5031234;28;20037;-69
2022/03/01 08:30:56;;;;;;;20.33;13.32;;;;;;;;;;5029564;28;20041;-69
2022/03/01 08:33:24;;;;;;;19.40;13.23;;;5.20;99.90;;;;;;5029839;28;20048;-69
2022/03/01 08:35:50;;;;;;;19.58;11.93;;;5.20;99.90;;;;;;5030991;28;20227;-69
2022/03/01 08:38:16;;;;;;;22.85;12.77;;;;;;;;;;5029861;28;20131;-69
2022/03/01 08:40:42;;;;;;;21.73;12.55;;;;;;;;;;5029282;28;20048;-69
2022/03/01 08:43:08;;;;;;;21.77;12.98;;;;;;;;;;5031058;28;20091;-69
2022/03/01 08:45:34;;;;;;;22.25;14.45;;;;;;;;;;5029992;28;20049;-68
2022/03/01 08:48:00;;;;;;;21.60;12.52;;;5.40;99.90;;;;;;5029679;28;20065;-69
2022/03/01 08:50:27;;;;;;;19.80;12.25;;;;;;;;;;5030896;28;20087;-68
2022/03/01 08:52:52;;;;;;;24.33;12.70;;;;;;;;;;5029418;28;20041;-69
2022/03/01 08:55:18;;;;;;;18.13;12.80;;;;;;;;;;5029617;28;20041;-70
2022/03/01 08:57:45;;;;;;;20.33;12.32;;;;;;;;;;5029618;28;20048;-70
2022/03/01 09:00:12;;;;;;;24.63;13.15;;;5.40;99.90;;;;;;5013649;28;20514;-69
2022/03/01 09:02:38;;;;;;;24.10;13.38;;;;;;;;;;5034255;28;20048;-69
2022/03/01 09:05:05;;;;;;;19.40;11.75;;;;;;;;;;5033364;28;20064;-68
2022/03/01 09:07:32;;;;;;;23.58;13.57;;;;;;;;;;5033340;28;20351;-69
2022/03/01 09:09:58;;;;;;;20.92;12.32;;;;;;;;;;5033919;28;20064;-69
2022/03/01 09:12:24;;;;;;;19.17;11.93;;;;;;;;;;5032932;28;20487;-69
2022/03/01 09:14:50;;;;;;;20.27;13.02;;;;;;;;;;5032806;28;20406;-69
2022/03/01 09:17:16;;;;;;;24.52;12.18;;;;;;;;;;5032922;28;20033;-69
2022/03/01 09:19:42;;;;;;;22.23;13.38;;;;;;;;;;5032478;28;20041;-70
2022/03/01 09:22:08;;;;;;;24.20;12.80;;;;;;;;;;5016292;28;20132;-70
2022/03/01 09:24:34;;;;;;;20.77;12.15;;;;;;;;;;5032696;28;20041;-70
2022/03/01 09:27:02;;;;;;;20.75;13.43;;;;;;;;;;5032698;28;20052;-70
2022/03/01 09:29:28;;;;;;;23.30;12.23;;;;;;;;;;5032485;28;20099;-70
2022/03/01 09:31:54;;;;;;;21.50;12.93;;;;;;;;;;5016140;28;20125;-70
2022/03/01 09:34:20;;;;;;;22.73;12.43;;;;;;;;;;5016071;28;20068;-70
2022/03/01 09:36:46;;;;;;;24.10;14.07;;;;;;;;;;5032538;28;20073;-69
2022/03/01 09:39:12;;;;;;;20.92;13.35;;;6.10;99.90;;;;;;5033462;28;20069;-68
2022/03/01 09:41:39;;;;;;;20.13;12.77;;;;;;;;;;5032427;28;20076;-69
2022/03/01 09:44:05;;;;;;;21.95;13.90;;;;;;;;;;5033987;28;20045;-69
2022/03/01 09:46:31;;;;;;;23.65;14.02;;;;;;;;;;5032389;28;20042;-69
2022/03/01 09:48:57;;;;;;;18.63;12.27;;;;;;;;;;5032142;28;20041;-69
2022/03/01 09:51:24;;;;;;;26.83;13.55;;;;;;;;;;5032442;28;20048;-69
2022/03/01 09:53:51;;;;;;;20.52;12.60;;;;;;;;;;5031997;28;20042;-69
2022/03/01 09:56:18;;;;;;;22.33;13.35;;;;;;;;;;5032158;28;20179;-68
2022/03/01 09:58:46;;;;;;;21.10;12.90;;;6.80;99.90;;;;;;5015657;28;20175;-69
2022/03/01 10:01:12;;;;;;;20.40;13.10;;;6.80;99.90;;;;;;5031743;28;20045;-69
2022/03/01 10:03:39;;;;;;;21.83;13.38;;;;;;;;;;5031830;28;20053;-69
2022/03/01 10:06:10;;;;;;;20.02;13.00;;;;;;;;;;5032150;28;20045;-69
2022/03/01 10:08:36;;;;;;;21.58;13.18;;;;;;;;;;5032123;28;20042;-69
2022/03/01 10:11:02;;;;;;;23.00;13.82;;;;;;;;;;5031387;28;20128;-68
2022/03/01 10:13:31;;;;;;;23.27;12.68;;;6.90;99.90;;;;;;5032294;28;20057;-69
2022/03/01 10:16:17;;;;;;;23.73;13.27;;;7.00;99.90;;;;;;5015487;28;20076;-69
2022/03/01 10:18:52;;;;;;;23.33;13.70;;;;;;;;;;5031961;28;20042;-69
2022/03/01 10:21:19;;;;;;;24.65;13.57;;;6.90;99.90;;;;;;5031822;28;20081;-69
2022/03/01 10:23:48;;;;;;;21.48;14.02;;;6.80;99.90;;;;;;5031911;28;20112;-68
2022/03/01 10:26:29;;;;;;;20.33;13.13;;;6.70;99.90;;;;;;5032290;28;20348;-69
2022/03/01 10:28:58;;;;;;;20.58;12.63;;;6.90;99.90;;;;;;5031946;28;20038;-69
2022/03/01 10:31:28;;;;;;;27.40;13.63;;;6.70;99.90;;;;;;5032150;28;20073;-70
2022/03/01 10:34:06;;;;;;;22.40;13.15;;;7.20;99.90;;;;;;5032188;28;20492;-70
2022/03/01 10:36:33;;;;;;;25.73;13.63;;;7.10;99.90;;;;;;5031575;28;20037;-70
2022/03/01 10:39:14;;;;;;;22.40;13.50;;;6.90;99.90;;;;;;5031524;28;20042;-69
2022/03/01 10:41:43;;;;;;;22.55;13.88;;;7.00;99.90;;;;;;5031556;28;20045;-69
2022/03/01 10:44:17;;;;;;;21.65;14.30;;;6.90;99.90;;;;;;5032385;28;20044;-69
2022/03/01 10:46:51;;;;;;;24.17;13.32;;;7.00;99.90;;;;;;5031248;28;20040;-69
2022/03/01 10:49:21;;;;;;;26.52;13.77;;;7.10;99.90;;;;;;5030856;28;20478;-70
2022/03/01 10:51:55;;;;;;;31.80;13.45;;;;;;;;;;5031277;28;20492;-69
2022/03/01 10:54:35;;;;;;;27.25;14.75;;;7.30;99.90;;;;;;5014675;28;20041;-69
2022/03/01 10:57:03;;;;;;;20.48;13.23;;;7.10;99.90;;;;;;5030999;28;20077;-69
2022/03/01 10:59:32;;;;;;;22.98;13.95;;;7.10;99.90;;;;;;5030939;28;20408;-69
2022/03/01 11:01:58;;;;;;;21.98;13.38;;;;;;;;;;5031081;28;20434;-69
2022/03/01 11:04:25;;;;;;;21.23;13.75;;;7.00;99.90;;;;;;5030737;28;20500;-69
2022/03/01 11:06:53;;;;;;;23.10;13.40;;;7.20;99.90;;;;;;5032374;28;20103;-69
2022/03/01 11:09:19;;;;;;;25.20;14.32;;;;;;;;;;5031694;28;20490;-69
2022/03/01 11:11:45;;;;;;;20.23;14.00;;;7.00;99.90;;;;;;5032142;28;20395;-69
2022/03/01 11:14:15;;;;;;;26.17;15.65;;;7.00;99.90;;;;;;5030837;28;20041;-69
2022/03/01 11:16:58;;;;;;;24.17;14.77;;;;;;;;;;5030665;28;20510;-68
2022/03/01 11:19:24;;;;;;;25.95;14.73;;;;;;;;;;5031610;28;20046;-70
2022/03/01 11:21:51;;;;;;;26.00;15.13;;;6.90;99.90;;;;;;5030585;28;20038;-69
2022/03/01 11:24:19;;;;;;;24.23;13.60;;;6.90;99.90;;;;;;5030234;28;20042;-69
2022/03/01 11:26:45;;;;;;;28.42;16.92;;;7.10;99.90;;;;;;5030701;28;20049;-69
2022/03/01 11:29:12;;;;;;;29.85;16.25;;;;;;;;;;5030079;28;20038;-71
2022/03/01 11:31:39;;;;;;;24.60;15.75;;;6.80;99.90;;;;;;5030454;28;20042;-69
2022/03/01 11:34:13;;;;;;;26.35;14.00;;;6.80;99.90;;;;;;5030745;28;20123;-69
2022/03/01 11:36:48;;;;;;;26.25;15.73;;;6.90;99.90;;;;;;5030391;28;20055;-69
2022/03/01 11:39:15;;;;;;;32.08;15.73;;;;;;;;;;5029924;28;20045;-69
2022/03/01 11:41:50;;;;;;;28.92;16.98;;;7.00;99.90;;;;;;5030662;28;20651;-68
2022/03/01 11:44:20;;;;;;;27.92;16.25;;;;;;;;;;5030191;28;20076;-70
2022/03/01 11:46:48;;;;;;;27.60;15.98;;;;;;;;;;5030169;28;20157;-70
2022/03/01 11:49:15;;;;;;;30.10;17.17;;;7.00;99.90;;;;;;5030178;28;20056;-69
2022/03/01 11:51:46;;;;;;;35.92;17.95;;;;;;;;;;5030340;28;20033;-69
2022/03/01 11:54:19;;;;;;;36.22;19.05;;;7.00;99.90;;;;;;5029929;28;20041;-69
2022/03/01 11:56:45;;;;;;;30.02;17.88;;;;;;;;;;5030421;28;20037;-69
2022/03/01 11:59:12;;;;;;;27.23;16.60;;;;;;;;;;5029658;28;20046;-68
2022/03/01 12:01:39;;;;;;;29.25;16.23;;;;;;;;;;5030170;28;20052;-69
2022/03/01 12:04:07;;;;;;;29.20;17.38;;;7.00;99.90;;;;;;5030169;28;20144;-70
2022/03/01 12:06:35;;;;;;;28.48;17.88;;;7.20;99.90;;;;;;5031247;28;20049;-69
2022/03/01 12:09:05;;;;;;;32.17;19.40;;;7.00;99.90;;;;;;5031065;28;20050;-69
2022/03/01 12:11:37;;;;;;;34.35;19.08;;;7.00;99.90;;;;;;5031166;28;20045;-69
2022/03/01 12:14:09;;;;;;;35.45;19.42;;;7.20;99.90;;;;;;5029927;28;20046;-69
2022/03/01 12:16:35;;;;;;;28.90;17.05;;;7.10;99.90;;;;;;5013429;28;20116;-68
2022/03/01 12:19:19;;;;;;;30.92;18.90;;;7.10;99.90;;;;;;5029876;28;20467;-69
2022/03/01 12:21:53;;;;;;;27.92;16.85;;;7.20;99.90;;;;;;5029965;28;20087;-69
2022/03/01 12:24:20;;;;;;;32.38;18.60;;;;;;;;;;5029714;28;20492;-69
2022/03/01 12:26:51;;;;;;;30.85;18.80;;;7.50;99.90;;;;;;5031196;28;20079;-70
2022/03/01 12:29:23;;;;;;;32.05;18.60;;;7.50;99.90;;;;;;5030732;28;20072;-69
2022/03/01 12:31:56;;;;;;;31.35;18.65;;;;;;;;;;5033007;28;20037;-70
2022/03/01 12:34:25;;;;;;;27.77;17.20;;;7.30;99.90;;;;;;5031461;28;20064;-69
2022/03/01 12:36:54;;;;;;;31.50;17.85;;;7.50;99.90;;;;;;5033257;28;20410;-69
2022/03/01 12:39:20;;;;;;;31.55;18.42;;;;;;;;;;5033474;28;20049;-69
2022/03/01 12:41:47;;;;;;;32.33;19.48;;;;;;;;;;5017126;28;20049;-69
2022/03/01 12:44:13;;;;;;;30.45;17.83;;;;;;;;;;5033254;28;20140;-69
2022/03/01 12:46:40;;;;;;;34.00;19.40;;;;;;;;;;5033526;28;20041;-70
2022/03/01 12:49:08;;;;;;;29.33;18.20;;;;;;;;;;5033186;28;20087;-69
2022/03/01 12:51:34;;;;;;;31.10;19.13;;;7.50;99.90;;;;;;5033323;28;20124;-70
2022/03/01 12:54:12;;;;;;;28.75;18.35;;;7.50;99.90;;;;;;5032801;28;20064;-70
2022/03/01 12:56:40;;;;;;;31.77;18.42;;;7.40;99.90;;;;;;5033363;28;20041;-69
2022/03/01 12:59:17;;;;;;;32.95;18.58;;;7.30;99.90;;;;;;5033032;28;20124;-69
2022/03/01 13:01:48;;;;;;;34.03;20.45;;;7.40;99.90;;;;;;5033264;28;20045;-70
2022/03/01 13:04:15;;;;;;;32.83;19.25;;;7.30;99.90;;;;;;5017020;28;20052;-69
2022/03/01 13:06:41;;;;;;;27.83;17.55;;;7.40;99.90;;;;;;5016517;28;20118;-69
2022/03/01 13:09:08;;;;;;;33.42;19.65;;;7.20;99.90;;;;;;5016483;28;20399;-67
2022/03/01 13:11:34;;;;;;;36.80;19.60;;;;;;;;;;5033041;28;20043;-69
2022/03/01 13:14:03;;;;;;;33.53;19.48;;;7.40;99.90;;;;;;5032964;28;20056;-69
2022/03/01 13:16:33;;;;;;;34.50;18.58;;;7.40;99.90;;;;;;5032840;28;20043;-69
2022/03/01 13:19:01;;;;;;;29.10;18.88;;;7.30;99.90;;;;;;5033952;28;20045;-69
2022/03/01 13:21:32;;;;;;;34.83;18.83;;;7.30;99.90;;;;;;5032844;28;20042;-69
2022/03/01 13:24:02;;;;;;;34.00;19.75;;;7.10;99.90;;;;;;5032923;28;20514;-68
2022/03/01 13:26:28;;;;;;;32.17;19.88;;;;;;;;;;5032741;28;20116;-68
2022/03/01 13:29:05;;;;;;;35.95;19.73;;;7.30;99.90;;;;;;5032467;28;20037;-68
2022/03/01 13:31:31;;;;;;;29.65;19.33;;;;;;;;;;5032615;28;20045;-68
2022/03/01 13:33:59;;;;;;;36.40;19.75;;;7.30;99.90;;;;;;5032699;28;20052;-68
2022/03/01 13:36:30;;;;;;;29.25;17.83;;;7.50;99.90;;;;;;5032518;28;20052;-68
2022/03/01 13:39:06;;;;;;;35.40;19.63;;;7.40;99.90;;;;;;5032283;28;20128;-70
2022/03/01 13:41:34;;;;;;;31.98;19.45;;;7.60;99.90;;;;;;5034817;22;20045;-72